Terminal Aerodrome Forecast
Issued by NWS

Home | Current Version | Previous Version | Text Only | Print | Product List | Glossary On
Versions: 1 2 3 4 5 6 7 8 9 10 11 12 13 14 15
000
FTUS46 KLOX 250531
TAFSBA
TAF
KSBA 250531Z 2506/2606 11007KT P6SM SCT015
     FM251200 VRB03KT P6SM BKN012
     FM251800 16006KT P6SM BKN020
     FM252000 24009KT P6SM SCT025 SCT250
     FM260300 VRB03KT P6SM SCT030=

USA.gov is the U.S. government's official web portal to all federal, state and local government web resources and services.